Time;durP1;ratioP1;P1;durP2;ratioP2;P2;SDS_P1;SDS_P2;PMS_P1;PMS_P2;Temp;Humidity;BMP_temperature;BMP_pressure;BME280_temperature;BME280_humidity;BME280_pressure;Samples;Min_cycle;Max_cycle;Signal;HPM_P1;HPM_P2
2022/05/31 00:02:23;;;;;;;;;6.25;6.25;;;;;16.95;41.30;100621.09;5035292;28;45280;-77
2022/05/31 00:04:49;;;;;;;;;7.00;5.50;;;;;16.93;41.26;100632.97;5034554;28;45357;-78
2022/05/31 00:07:15;;;;;;;;;5.50;5.50;;;;;16.94;41.44;100627.47;5034421;28;45373;-78
2022/05/31 00:09:40;;;;;;;;;6.75;5.50;;;;;16.93;41.70;100622.22;5034575;28;45445;-78
2022/05/31 00:12:06;;;;;;;;;6.00;6.00;;;;;16.91;41.66;100616.09;5034077;28;50814;-78
2022/05/31 00:14:32;;;;;;;;;3.50;3.50;;;;;16.91;41.63;100619.69;5035581;28;45555;-78
2022/05/31 00:16:58;;;;;;;;;4.25;4.25;;;;;16.88;41.87;100616.38;5034076;28;45708;-77
2022/05/31 00:19:24;;;;;;;;;3.75;2.25;;;;;16.88;41.92;100621.75;5034292;28;45344;-78
2022/05/31 00:22:04;;;;;;;;;4.00;4.00;;;;;16.89;41.83;100620.78;5034290;28;46022;-78
2022/05/31 00:24:29;;;;;;;;;5.00;5.00;;;;;16.85;42.09;100616.66;5031106;28;45529;-78
2022/05/31 00:26:55;;;;;;;;;3.75;1.75;;;;;16.84;42.42;100618.50;5034063;28;46318;-78
2022/05/31 00:29:20;;;;;;;;;3.00;3.00;;;;;16.82;42.24;100615.91;5034806;28;45427;-78
2022/05/31 00:31:48;;;;;;;;;2.50;2.50;;;;;16.78;42.32;100610.91;5034280;28;45332;-78
2022/05/31 00:34:14;;;;;;;;;5.25;3.00;;;;;16.80;42.55;100615.19;5033705;28;45345;-78
2022/05/31 00:36:44;;;;;;;;;3.00;3.00;;;;;16.78;42.64;100606.41;5034037;28;45739;-78
2022/05/31 00:39:10;;;;;;;;;2.25;2.25;;;;;16.79;42.46;100609.97;5033951;28;45441;-78
2022/05/31 00:41:36;;;;;;;;;3.00;3.00;;;;;16.78;42.51;100613.59;5034721;28;45419;-78
2022/05/31 00:44:19;;;;;;;;;1.50;1.50;;;;;16.73;42.80;100608.59;5033737;28;45511;-78
2022/05/31 00:46:49;;;;;;;;;3.25;2.25;;;;;16.76;42.64;100616.41;5030154;28;45470;-79
2022/05/31 00:49:25;;;;;;;;;2.00;2.00;;;;;16.76;42.73;100611.03;5033691;28;45489;-78
2022/05/31 00:51:55;;;;;;;;;2.00;2.00;;;;;16.76;42.80;100610.16;5033852;28;45393;-78
2022/05/31 00:54:24;;;;;;;;;1.50;1.50;;;;;16.70;42.45;100610.69;5033830;28;45424;-78
2022/05/31 00:56:51;;;;;;;;;2.00;2.00;;;;;16.69;42.63;100617.91;5034292;28;45468;-78
2022/05/31 00:59:26;;;;;;;;;4.00;3.00;;;;;16.67;42.72;100611.81;5034272;28;45481;-78
2022/05/31 01:01:53;;;;;;;;;2.50;1.75;;;;;16.69;42.77;100617.03;5033491;28;45516;-78
2022/05/31 01:04:48;;;;;;;;;2.00;2.00;;;;;16.70;42.54;100621.44;5033312;28;45563;-78
2022/05/31 01:07:14;;;;;;;;;1.75;1.75;;;;;16.66;42.76;100620.84;5029310;28;45393;-79
2022/05/31 01:09:39;;;;;;;;;3.00;2.50;;;;;16.68;42.64;100624.25;5033400;28;46365;-79
2022/05/31 01:12:06;;;;;;;;;4.00;2.50;;;;;16.69;42.75;100617.91;5033882;28;45456;-79
2022/05/31 01:14:32;;;;;;;;;2.50;2.50;;;;;16.70;42.89;100621.44;5035483;28;45317;-80
2022/05/31 01:17:06;;;;;;;;;2.75;2.75;;;;;16.68;43.10;100613.50;5031122;28;45641;-78
2022/05/31 01:22:40;;;;;;;;;3.00;3.00;;;;;16.65;43.29;100619.16;4970993;28;45433;-79
2022/05/31 01:25:09;;;;;;;;;2.00;2.00;;;;;16.62;43.14;100616.72;4956971;28;45549;-79
2022/05/31 01:27:53;;;;;;;;;4.50;3.00;;;;;16.59;43.30;100609.75;4970756;28;45456;-79
2022/05/31 01:30:19;;;;;;;;;4.00;3.00;;;;;16.56;43.65;100604.63;4958013;28;45528;-79
2022/05/31 01:32:54;;;;;;;;;2.50;2.50;;;;;16.54;43.82;100609.28;4968482;28;45491;-79
2022/05/31 01:35:26;;;;;;;;;4.00;2.00;;;;;16.49;44.25;100606.13;4976115;28;45460;-79
2022/05/31 01:38:01;;;;;;;;;1.50;1.50;;;;;16.47;44.40;100602.69;4972702;28;46049;-79
2022/05/31 01:40:37;;;;;;;;;3.00;3.00;;;;;16.45;44.68;100603.81;4973199;28;45474;-79
2022/05/31 01:43:02;;;;;;;;;3.00;3.00;;;;;16.43;44.66;100609.34;4958486;28;45552;-79
2022/05/31 01:45:35;;;;;;;;;3.00;3.00;;;;;16.42;44.78;100610.28;4980389;28;45482;-79
2022/05/31 01:48:04;;;;;;;;;3.75;3.75;;;;;16.35;44.70;100607.25;4969759;28;46715;-79
2022/05/31 01:50:31;;;;;;;;;3.25;3.00;;;;;16.34;44.71;100610.94;4975191;28;45475;-79
2022/05/31 01:52:57;;;;;;;;;2.25;2.25;;;;;16.33;44.49;100609.25;4976421;28;45382;-79
2022/05/31 01:55:23;;;;;;;;;2.00;2.00;;;;;16.31;44.86;100613.88;4977351;28;45472;-79
2022/05/31 01:57:55;;;;;;;;;2.00;2.00;;;;;16.30;44.24;100609.47;5036217;28;45420;-79
2022/05/31 02:00:21;;;;;;;;;2.00;2.00;;;;;16.35;44.52;100611.78;5034780;28;45404;-79
2022/05/31 02:02:50;;;;;;;;;2.00;2.00;;;;;16.35;44.22;100615.31;5037506;28;45365;-79
2022/05/31 02:05:16;;;;;;;;;6.75;6.75;;;;;16.33;44.54;100616.44;5036898;28;45324;-79
2022/05/31 02:07:42;;;;;;;;;8.00;7.00;;;;;16.30;44.86;100617.53;5036160;28;46349;-79
2022/05/31 02:10:07;;;;;;;;;3.50;3.50;;;;;16.26;45.07;100612.53;5036158;28;45522;-79
2022/05/31 02:12:33;;;;;;;;;4.00;3.00;;;;;16.26;45.13;100615.22;5036398;28;45468;-79
2022/05/31 02:14:58;;;;;;;;;2.25;2.25;;;;;16.25;45.31;100621.59;5036696;28;45552;-79
2022/05/31 02:17:24;;;;;;;;;3.00;3.00;;;;;16.23;45.58;100618.16;5036917;28;45448;-79
2022/05/31 02:19:50;;;;;;;;;3.25;2.75;;;;;16.19;45.36;100618.44;5036260;28;45412;-80
2022/05/31 02:22:20;;;;;;;;;2.75;2.75;;;;;16.17;45.44;100617.69;5035995;28;45537;-79
2022/05/31 02:24:45;;;;;;;;;3.75;3.75;;;;;16.16;45.37;100625.88;5036271;28;45419;-79
2022/05/31 02:27:11;;;;;;;;;2.00;2.00;;;;;16.14;45.96;100630.53;5036042;28;45553;-78
2022/05/31 02:29:39;;;;;;;;;4.00;3.00;;;;;16.17;45.93;100631.13;5036956;28;45291;-79
2022/05/31 02:32:07;;;;;;;;;2.00;2.00;;;;;16.14;46.23;100634.06;5035995;28;45534;-79
2022/05/31 02:34:38;;;;;;;;;2.00;2.00;;;;;16.15;45.59;100629.53;5035717;28;45602;-79
2022/05/31 02:37:04;;;;;;;;;2.75;2.75;;;;;16.14;45.83;100628.69;5035978;28;46173;-79
2022/05/31 02:39:30;;;;;;;;;3.50;2.00;;;;;16.13;46.04;100623.44;5035953;28;45617;-79
2022/05/31 02:41:56;;;;;;;;;4.00;2.25;;;;;16.13;46.17;100624.28;5036121;28;45416;-78
2022/05/31 02:44:23;;;;;;;;;2.00;1.00;;;;;16.12;45.95;100621.75;5036506;28;45392;-79
2022/05/31 02:46:49;;;;;;;;;4.00;4.00;;;;;16.12;46.08;100624.44;5035474;28;46057;-79
2022/05/31 02:49:14;;;;;;;;;4.00;4.00;;;;;16.12;46.26;100621.75;5034623;28;45397;-79
2022/05/31 02:51:43;;;;;;;;;3.00;3.00;;;;;16.11;46.08;100617.34;5036288;28;45551;-79
2022/05/31 02:54:10;;;;;;;;;4.00;3.00;;;;;16.08;46.04;100617.59;5036848;28;45310;-79
2022/05/31 02:56:35;;;;;;;;;3.75;3.00;;;;;16.07;46.13;100618.59;5037623;28;46236;-79
2022/05/31 02:59:01;;;;;;;;;3.00;3.00;;;;;16.05;46.08;100618.69;5036470;28;45412;-79
2022/05/31 03:01:34;;;;;;;;;1.50;1.50;;;;;16.04;45.90;100619.66;5036499;28;45326;-78
2022/05/31 03:04:00;;;;;;;;;2.00;2.00;;;;;16.06;46.30;100620.41;5018798;28;45507;-78
2022/05/31 03:06:26;;;;;;;;;2.50;2.50;;;;;16.03;45.93;100622.50;5036497;28;46198;-78
2022/05/31 03:08:51;;;;;;;;;3.00;3.00;;;;;16.01;46.25;100617.22;5037089;28;45628;-79
2022/05/31 03:11:35;;;;;;;;;2.00;2.00;;;;;16.03;46.38;100614.44;5036701;28;45375;-79
2022/05/31 03:14:36;;;;;;;;;3.00;3.00;;;;;15.99;46.31;100613.81;5036491;28;45481;-79
2022/05/31 03:17:20;;;;;;;;;5.00;4.00;;;;;15.96;46.26;100611.38;5036254;28;46232;-79
2022/05/31 03:20:04;;;;;;;;;7.00;4.75;;;;;15.94;46.81;100610.66;5036401;28;45550;-79
2022/05/31 03:22:39;;;;;;;;;4.00;4.00;;;;;15.95;46.61;100612.38;5031401;28;45374;-79
2022/05/31 03:25:10;;;;;;;;;3.00;3.00;;;;;15.93;46.84;100601.75;5025291;28;45477;-79
2022/05/31 03:27:36;;;;;;;;;4.00;4.00;;;;;15.92;46.85;100612.59;5023058;28;45586;-79
2022/05/31 03:30:03;;;;;;;;;4.75;4.75;;;;;15.92;46.90;100616.16;5020466;28;45258;-79
2022/05/31 03:32:31;;;;;;;;;5.00;5.00;;;;;15.89;47.07;100621.75;5021156;28;45822;-78
2022/05/31 03:34:56;;;;;;;;;6.25;5.25;;;;;15.90;47.30;100628.00;5024975;28;45490;-78
2022/05/31 03:37:22;;;;;;;;;5.25;5.25;;;;;15.88;47.18;100627.25;5024885;28;45424;-78
2022/05/31 03:39:47;;;;;;;;;5.00;5.00;;;;;15.89;46.68;100631.66;5024563;28;45742;-78
2022/05/31 03:42:12;;;;;;;;;5.50;5.25;;;;;15.92;46.82;100624.22;5020324;28;45432;-78
2022/05/31 03:44:38;;;;;;;;;6.00;6.00;;;;;15.94;46.69;100616.88;5021993;28;45562;-78
2022/05/31 03:47:04;;;;;;;;;6.75;6.75;;;;;15.95;47.03;100621.28;5024410;28;52561;-78
2022/05/31 03:49:31;;;;;;;;;7.00;7.00;;;;;15.94;47.08;100606.13;5006790;28;45939;-79
2022/05/31 03:51:56;;;;;;;;;5.50;5.50;;;;;15.96;47.48;100611.38;5024937;28;45487;-79
2022/05/31 03:54:22;;;;;;;;;4.25;4.25;;;;;15.95;47.57;100605.16;5020761;28;45394;-79
2022/05/31 03:56:47;;;;;;;;;4.50;4.50;;;;;15.98;47.62;100612.13;5020768;28;45993;-79
2022/05/31 03:59:12;;;;;;;;;6.00;6.00;;;;;15.96;47.73;100617.59;5024496;28;45453;-79
2022/05/31 04:01:37;;;;;;;;;5.75;5.00;;;;;15.94;47.36;100613.34;5023835;28;45563;-79
2022/05/31 04:04:03;;;;;;;;;6.00;5.00;;;;;15.94;47.54;100621.38;5024403;28;47730;-78
2022/05/31 04:06:29;;;;;;;;;4.50;4.50;;;;;15.88;47.05;100619.22;5021761;28;45860;-78
2022/05/31 04:08:55;;;;;;;;;4.00;4.00;;;;;15.92;47.06;100626.03;5020141;28;45376;-78
2022/05/31 04:11:21;;;;;;;;;6.00;4.75;;;;;15.95;47.27;100625.81;5023968;28;45369;-78
2022/05/31 04:13:46;;;;;;;;;5.50;4.75;;;;;15.95;47.21;100625.81;5024458;28;45432;-78
2022/05/31 04:16:14;;;;;;;;;4.00;4.00;;;;;15.96;47.25;100620.28;5022209;28;45491;-78
2022/05/31 04:18:41;;;;;;;;;5.00;5.00;;;;;15.96;47.53;100622.97;5019500;28;45902;-78
2022/05/31 04:21:11;;;;;;;;;5.75;5.75;;;;;15.95;47.50;100613.22;5024756;28;45301;-78
2022/05/31 04:26:21;;;;;;;;;4.75;4.75;;;;;15.94;47.41;100611.50;5031537;28;46027;-78
2022/05/31 04:28:46;;;;;;;;;4.75;4.75;;;;;15.94;47.58;100606.13;5027961;28;45364;-78
2022/05/31 04:31:12;;;;;;;;;5.25;4.75;;;;;15.97;47.43;100610.41;5024889;28;45617;-78
2022/05/31 04:33:38;;;;;;;;;4.00;4.00;;;;;15.94;47.56;100614.19;5030652;28;45444;-78
2022/05/31 04:36:07;;;;;;;;;4.00;4.00;;;;;15.94;47.54;100614.19;5019181;28;46056;-78
2022/05/31 04:38:33;;;;;;;;;5.00;4.00;;;;;15.94;47.61;100613.34;5022002;28;45451;-78
2022/05/31 04:40:58;;;;;;;;;4.75;3.50;;;;;15.94;47.87;100607.97;5010117;28;45764;-79
2022/05/31 04:43:24;;;;;;;;;4.25;4.25;;;;;15.94;47.76;100619.56;5031690;28;45669;-78
2022/05/31 04:45:50;;;;;;;;;3.75;3.75;;;;;15.92;48.11;100613.47;5005832;28;46281;-79
2022/05/31 04:48:15;;;;;;;;;7.00;6.00;;;;;15.91;48.38;100614.44;5019984;28;45576;-79
2022/05/31 04:50:40;;;;;;;;;6.50;5.75;;;;;15.88;48.24;100612.00;5031889;28;45290;-79
2022/05/31 04:53:06;;;;;;;;;5.00;4.00;;;;;15.88;48.07;100619.22;5024787;28;45540;-78
2022/05/31 04:55:31;;;;;;;;;4.00;4.00;;;;;15.91;47.77;100621.66;5023516;28;45292;-79
2022/05/31 04:57:57;;;;;;;;;5.50;5.50;;;;;15.92;47.91;100623.34;5023381;28;45460;-79
2022/05/31 05:00:22;;;;;;;;;5.25;4.50;;;;;15.90;48.50;100614.56;5023814;28;45348;-82
2022/05/31 05:02:47;;;;;;;;;6.00;5.00;;;;;15.88;48.45;100628.13;5025786;28;45379;-82
2022/05/31 05:05:13;;;;;;;;;4.00;4.00;;;;;15.91;48.03;100624.31;5024630;28;45417;-81
2022/05/31 05:07:39;;;;;;;;;6.00;5.00;;;;;15.90;47.54;100628.00;5034737;28;45422;-82
2022/05/31 05:10:06;;;;;;;;;5.00;5.00;;;;;15.88;47.72;100636.16;5032911;28;45424;-81
2022/05/31 05:12:31;;;;;;;;;6.50;5.50;;;;;15.88;47.53;100636.16;5020887;28;45520;-81
2022/05/31 05:14:57;;;;;;;;;3.00;3.00;;;;;15.84;47.34;100621.28;5022712;28;46275;-81
2022/05/31 05:17:23;;;;;;;;;4.00;4.00;;;;;15.87;47.99;100631.75;5026102;28;45429;-81
2022/05/31 05:19:48;;;;;;;;;5.00;5.00;;;;;15.89;47.99;100637.88;5014486;28;45405;-82
2022/05/31 05:22:14;;;;;;;;;5.50;5.00;;;;;15.88;47.41;100633.47;5025810;28;45376;-81
2022/05/31 05:24:39;;;;;;;;;4.75;4.75;;;;;15.88;47.69;100638.00;5013810;28;47182;-81
2022/05/31 05:27:05;;;;;;;;;4.75;4.75;;;;;15.85;47.61;100639.09;5008163;28;45617;-81
2022/05/31 05:32:14;;;;;;;;;7.25;7.00;;;;;15.88;47.61;100646.91;5030148;28;45534;-81
2022/05/31 05:34:39;;;;;;;;;5.50;5.00;;;;;15.93;47.90;100651.91;5027627;28;46271;-82
2022/05/31 05:37:04;;;;;;;;;6.25;4.50;;;;;15.94;47.36;100640.19;5005079;28;51691;-81
2022/05/31 05:39:30;;;;;;;;;5.00;5.00;;;;;16.00;47.81;100652.28;5021392;28;45424;-81
2022/05/31 05:41:55;;;;;;;;;4.75;4.75;;;;;16.00;47.54;100653.13;5018793;28;45948;-82
2022/05/31 05:44:20;;;;;;;;;5.00;5.00;;;;;16.00;47.50;100650.44;5011737;28;47036;-82
2022/05/31 05:46:46;;;;;;;;;7.00;5.25;;;;;16.06;47.95;100659.81;5024325;28;45510;-82
2022/05/31 05:49:11;;;;;;;;;8.25;5.25;;;;;16.09;47.82;100660.44;5023193;28;45439;-82
2022/05/31 05:51:36;;;;;;;;;5.25;3.50;;;;;16.10;48.39;100653.25;5024521;28;45577;-82
2022/05/31 05:54:02;;;;;;;;;5.50;4.50;;;;;16.11;47.55;100649.56;5018281;28;46340;-82
2022/05/31 05:56:29;;;;;;;;;5.00;5.00;;;;;16.18;48.00;100662.38;5024315;28;45349;-82
2022/05/31 05:58:55;;;;;;;;;6.00;6.00;;;;;16.17;47.44;100657.97;5025425;28;45661;-82
2022/05/31 06:01:26;;;;;;;;;4.75;4.75;;;;;16.23;47.51;100658.47;5020219;28;45491;-82
2022/05/31 06:04:10;;;;;;;;;5.75;5.75;;;;;16.27;48.00;100665.31;5017774;28;45555;-82
2022/05/31 06:06:37;;;;;;;;;6.00;6.00;;;;;16.29;47.62;100657.97;5013445;28;45964;-82
2022/05/31 06:09:05;;;;;;;;;6.50;5.00;;;;;16.34;47.92;100667.34;5032183;28;45352;-82
2022/05/31 06:11:38;;;;;;;;;5.00;5.00;;;;;16.37;47.62;100663.56;5018972;28;45458;-82
2022/05/31 06:14:35;;;;;;;;;5.00;5.00;;;;;16.44;47.61;100666.59;5022487;28;46446;-82
2022/05/31 06:17:06;;;;;;;;;4.75;4.75;;;;;16.48;47.68;100673.44;5001041;28;45505;-82
2022/05/31 06:19:36;;;;;;;;;6.50;6.50;;;;;16.50;47.43;100677.72;5025957;28;45587;-82
2022/05/31 06:22:04;;;;;;;;;6.50;6.50;;;;;16.50;46.49;100683.09;5022625;28;45334;-83
2022/05/31 06:24:32;;;;;;;;;5.00;3.25;;;;;16.49;46.10;100675.13;5021376;28;46012;-85
2022/05/31 06:26:58;;;;;;;;;4.50;4.50;;;;;16.48;46.12;100671.59;5035498;28;45440;-83
2022/05/31 06:29:23;;;;;;;;;6.25;5.00;;;;;16.52;46.29;100666.81;5025202;28;45244;-83
2022/05/31 06:31:48;;;;;;;;;4.50;4.50;;;;;16.59;46.20;100670.72;5021869;28;45350;-84
2022/05/31 06:34:15;;;;;;;;;5.00;4.00;;;;;16.61;46.17;100668.75;5029233;28;45750;-83
2022/05/31 06:36:41;;;;;;;;;2.75;2.75;;;;;16.65;46.69;100672.06;5007223;28;45767;-82
2022/05/31 06:39:08;;;;;;;;;2.50;2.50;;;;;16.69;46.67;100668.09;5003147;28;45475;-83
2022/05/31 06:41:34;;;;;;;;;1.50;1.50;;;;;16.72;46.56;100675.94;5034035;28;45958;-83
2022/05/31 06:44:00;;;;;;;;;6.00;5.00;;;;;16.76;46.27;100672.00;5027733;28;46714;-83
2022/05/31 06:46:26;;;;;;;;;8.25;8.25;;;;;16.79;47.17;100679.88;5023822;28;45464;-82
2022/05/31 06:48:53;;;;;;;;;9.25;9.25;;;;;16.81;47.56;100680.56;5030545;28;45838;-82
2022/05/31 06:56:58;;;;;;;;;5.25;4.00;;;;;16.85;46.86;100676.66;5021653;28;45317;-82
2022/05/31 06:59:23;;;;;;;;;4.00;4.00;;;;;16.91;47.06;100684.22;5023433;28;45500;-82
2022/05/31 07:01:49;;;;;;;;;4.25;4.25;;;;;16.93;46.09;100689.44;5011600;28;45443;-82
2022/05/31 07:04:15;;;;;;;;;4.50;4.25;;;;;16.97;45.98;100688.22;5034740;28;48671;-80
2022/05/31 07:06:41;;;;;;;;;7.25;7.25;;;;;16.99;45.29;100681.72;5035960;28;45523;-82
2022/05/31 07:09:06;;;;;;;;;8.50;6.50;;;;;17.01;45.08;100678.91;5034720;28;45516;-81
2022/05/31 07:11:32;;;;;;;;;5.00;5.00;;;;;17.07;45.29;100678.38;5037006;28;45405;-82
2022/05/31 07:13:57;;;;;;;;;4.00;4.00;;;;;17.12;45.73;100686.06;5027536;28;46209;-82
2022/05/31 07:16:23;;;;;;;;;5.50;5.50;;;;;17.21;45.90;100680.75;5021910;28;45318;-81
2022/05/31 07:18:49;;;;;;;;;9.50;7.75;;;;;17.27;45.80;100682.09;5027348;28;45388;-81
2022/05/31 07:21:15;;;;;;;;;9.50;9.00;;;;;17.34;45.57;100688.66;5032681;28;45462;-81
2022/05/31 07:23:40;;;;;;;;;8.00;6.00;;;;;17.39;44.55;100682.84;5003704;28;48202;-81
2022/05/31 07:26:07;;;;;;;;;3.75;3.75;;;;;17.45;43.97;100687.72;5035195;28;45459;-81
2022/05/31 07:28:32;;;;;;;;;6.50;6.50;;;;;17.50;43.67;100690.84;5032493;28;45515;-82
2022/05/31 07:30:57;;;;;;;;;6.75;5.50;;;;;17.49;43.43;100691.00;5035241;28;45539;-81
2022/05/31 07:33:23;;;;;;;;;6.75;5.75;;;;;17.53;43.62;100687.03;5049700;28;46126;-89
2022/05/31 07:35:49;;;;;;;;;34.50;21.00;;;;;17.57;45.83;100689.34;5016209;28;45514;-80
2022/05/31 07:38:16;;;;;;;;;6.50;5.00;;;;;17.63;46.33;100694.22;5029695;28;45420;-82
2022/05/31 07:40:41;;;;;;;;;5.75;5.50;;;;;17.61;44.09;100695.34;5032105;28;45360;-82
2022/05/31 07:43:06;;;;;;;;;4.50;4.50;;;;;17.66;44.74;100695.78;5029295;28;46227;-81
2022/05/31 07:45:31;;;;;;;;;6.25;5.25;;;;;17.71;44.92;100690.84;5027775;28;45380;-80
2022/05/31 07:47:57;;;;;;;;;5.25;5.25;;;;;17.69;43.90;100692.81;5020331;28;45435;-81
2022/05/31 07:50:23;;;;;;;;;8.50;5.50;;;;;17.69;43.60;100690.13;5024031;28;45519;-81
2022/05/31 07:52:48;;;;;;;;;8.50;6.25;;;;;17.72;44.93;100692.53;5024599;28;45416;-81
2022/05/31 07:55:14;;;;;;;;;6.00;6.00;;;;;17.72;43.95;100689.00;5026124;28;45406;-82
2022/05/31 08:00:23;;;;;;;;;25.50;21.75;;;;;17.75;43.87;100694.09;5025284;28;45472;-79
2022/05/31 08:02:50;;;;;;;;;19.25;14.50;;;;;17.82;44.95;100698.88;5019869;28;47117;-79
2022/05/31 08:05:15;;;;;;;;;10.75;9.50;;;;;17.87;45.68;100701.16;5022310;28;45549;-81
2022/05/31 08:07:41;;;;;;;;;8.50;6.75;;;;;17.92;46.28;100700.75;5009112;28;45418;-80
2022/05/31 08:10:08;;;;;;;;;7.25;7.25;;;;;17.93;43.68;100700.63;5033482;28;45444;-80
2022/05/31 08:12:33;;;;;;;;;9.25;7.25;;;;;17.80;42.49;100699.97;5028718;28;45941;-80
2022/05/31 08:14:59;;;;;;;;;8.50;7.25;;;;;17.85;43.71;100701.31;5019821;28;45391;-80
2022/05/31 08:17:24;;;;;;;;;7.00;7.00;;;;;17.92;44.10;100698.06;5012666;28;45407;-80
2022/05/31 08:19:49;;;;;;;;;5.75;5.25;;;;;17.94;42.90;100701.47;5027596;28;45299;-75
2022/05/31 08:22:15;;;;;;;;;7.25;6.75;;;;;18.02;42.73;100702.50;5026288;28;45456;-76
2022/05/31 08:24:40;;;;;;;;;5.00;5.00;;;;;18.15;42.73;100706.81;5035566;28;45379;-77
2022/05/31 08:27:05;;;;;;;;;8.00;5.00;;;;;18.24;41.48;100696.06;5022229;28;45565;-77
2022/05/31 08:29:31;;;;;;;;;7.00;7.00;;;;;18.30;41.13;100700.03;5022454;28;45302;-77
2022/05/31 08:31:58;;;;;;;;;5.00;5.00;;;;;18.35;40.86;100692.44;5023665;28;58002;-77
2022/05/31 08:34:26;;;;;;;;;7.25;5.75;;;;;18.40;40.71;100700.94;5026383;28;45627;-77
2022/05/31 08:36:53;;;;;;;;;6.00;5.00;;;;;18.42;40.40;100698.09;5034411;28;45496;-79
2022/05/31 08:39:18;;;;;;;;;6.50;5.00;;;;;18.47;40.57;100695.84;5001589;28;45359;-79
2022/05/31 08:41:46;;;;;;;;;6.75;6.25;;;;;18.55;40.34;100689.78;5020208;28;45711;-79
2022/05/31 08:44:34;;;;;;;;;5.50;5.25;;;;;18.58;40.00;100690.34;5024147;28;45502;-79
2022/05/31 08:47:17;;;;;;;;;6.00;5.00;;;;;18.60;39.32;100701.84;5023725;28;45428;-78
2022/05/31 08:52:53;;;;;;;;;4.25;4.25;;;;;18.55;39.19;100698.72;5021291;28;45605;-78
2022/05/31 08:58:21;;;;;;;;;6.00;5.00;;;;;18.58;38.71;100697.56;5023800;28;45354;-78
2022/05/31 09:00:49;;;;;;;;;3.50;3.50;;;;;18.62;39.29;100699.84;5005318;28;45439;-80
2022/05/31 09:03:34;;;;;;;;;3.75;3.75;;;;;18.70;39.66;100701.84;5018846;28;45377;-78
2022/05/31 09:06:06;;;;;;;;;4.00;4.00;;;;;18.78;39.08;100702.03;5032967;28;45341;-78
2022/05/31 09:09:03;;;;;;;;;3.50;3.50;;;;;18.84;38.64;100704.16;5020295;28;45543;-79
2022/05/31 09:11:34;;;;;;;;;5.25;5.25;;;;;18.89;38.40;100688.41;5022044;28;45464;-78
2022/05/31 09:14:14;;;;;;;;;4.25;4.25;;;;;18.97;38.75;100689.56;5023438;28;46090;-78
2022/05/31 09:16:45;;;;;;;;;6.00;4.00;;;;;19.09;38.78;100701.91;5023381;28;49559;-79
2022/05/31 09:19:18;;;;;;;;;6.25;4.75;;;;;19.17;38.33;100696.66;5023592;28;45629;-78
2022/05/31 09:21:47;;;;;;;;;4.00;4.00;;;;;19.26;38.43;100697.63;5022264;28;45608;-78
2022/05/31 09:24:16;;;;;;;;;5.00;3.75;;;;;19.30;38.68;100694.50;5018628;28;46061;-78
2022/05/31 09:26:47;;;;;;;;;6.75;4.00;;;;;19.33;39.55;100688.81;5020372;28;45313;-78
2022/05/31 09:29:18;;;;;;;;;7.00;4.25;;;;;19.42;38.49;100706.00;5023255;28;45405;-78
2022/05/31 09:32:27;;;;;;;;;4.50;4.50;;;;;19.50;38.26;100702.56;5023249;28;45467;-78
2022/05/31 09:35:29;;;;;;;;;5.00;5.00;;;;;19.54;37.65;100698.59;4950187;28;46097;-79
2022/05/31 09:38:10;;;;;;;;;4.75;4.75;;;;;19.62;37.93;100698.72;4953331;28;45405;-78
2022/05/31 09:40:42;;;;;;;;;3.50;3.50;;;;;19.64;36.68;100696.72;4953651;28;46101;-78
2022/05/31 09:43:30;;;;;;;;;4.00;3.25;;;;;19.71;37.33;100694.31;4953475;28;45565;-78
2022/05/31 09:46:03;;;;;;;;;3.00;2.25;;;;;19.78;36.90;100698.97;4953326;28;47086;-78
2022/05/31 09:48:29;;;;;;;;;5.00;3.75;;;;;19.84;35.76;100699.38;4953355;28;45468;-79
2022/05/31 09:51:01;;;;;;;;;4.50;4.50;;;;;19.88;35.07;100693.53;4953657;28;45601;-78
2022/05/31 09:59:11;;;;;;;;;6.00;6.00;;;;;20.09;35.41;100689.78;4954113;28;45430;-79
2022/05/31 10:01:45;;;;;;;;;5.00;5.00;;;;;20.11;35.45;100676.97;4956511;28;45536;-79
2022/05/31 10:04:13;;;;;;;;;6.25;4.50;;;;;20.18;35.51;100683.47;4956481;28;45401;-79
2022/05/31 10:06:59;;;;;;;;;4.00;4.00;;;;;20.24;34.02;100680.16;4956545;28;45906;-78
2022/05/31 10:09:35;;;;;;;;;3.00;3.00;;;;;20.33;34.79;100678.41;4962498;28;45416;-78
2022/05/31 10:12:15;;;;;;;;;3.25;3.25;;;;;20.48;35.68;100676.88;5001850;28;45346;-78
2022/05/31 10:14:46;;;;;;;;;3.00;3.00;;;;;20.66;35.57;100681.50;5002802;28;45395;-79
2022/05/31 10:17:29;;;;;;;;;3.75;3.00;;;;;20.81;34.27;100679.97;5006117;28;45509;-79
2022/05/31 10:20:12;;;;;;;;;3.00;3.00;;;;;20.91;33.43;100682.63;5006156;28;45562;-78
2022/05/31 10:22:40;;;;;;;;;2.25;2.25;;;;;21.03;32.46;100681.38;5006407;28;45510;-78
2022/05/31 10:25:24;;;;;;;;;2.25;2.25;;;;;20.96;32.42;100683.00;5011103;28;45511;-79
2022/05/31 10:27:56;;;;;;;;;4.50;3.50;;;;;20.90;32.74;100672.78;5004661;28;46186;-79
2022/05/31 10:30:23;;;;;;;;;4.75;3.00;;;;;20.89;32.71;100674.63;5013587;28;45559;-78
2022/05/31 10:32:55;;;;;;;;;2.50;2.50;;;;;20.81;33.17;100671.88;5009029;28;45519;-78
2022/05/31 10:35:20;;;;;;;;;3.00;3.00;;;;;20.76;32.63;100668.78;5011248;28;45647;-79
2022/05/31 10:37:55;;;;;;;;;2.50;1.50;;;;;20.77;32.57;100668.59;5028105;28;46121;-78
2022/05/31 10:40:24;;;;;;;;;2.00;2.00;;;;;20.85;32.47;100667.81;5029422;28;45558;-78
2022/05/31 10:42:54;;;;;;;;;6.00;3.00;;;;;21.02;31.56;100685.94;5025727;28;45474;-78
2022/05/31 10:45:26;;;;;;;;;3.00;2.00;;;;;21.13;31.58;100671.28;5021626;28;45350;-78
2022/05/31 10:47:55;;;;;;;;;2.00;2.00;;;;;21.20;31.17;100671.53;5021242;28;45932;-78
2022/05/31 10:50:33;;;;;;;;;3.25;3.00;;;;;21.23;32.07;100674.75;5024079;28;45239;-78
2022/05/31 10:53:13;;;;;;;;;3.75;3.75;;;;;21.24;31.65;100679.19;5025767;28;45466;-78
2022/05/31 10:55:47;;;;;;;;;4.75;4.25;;;;;21.18;31.99;100678.94;5025649;28;45545;-78
2022/05/31 10:58:58;;;;;;;;;3.00;3.00;;;;;21.24;31.76;100676.47;5007636;28;49933;-78
2022/05/31 11:02:02;;;;;;;;;3.00;3.00;;;;;21.25;31.95;100678.16;4964900;28;45494;-78
2022/05/31 11:04:56;;;;;;;;;2.25;2.25;;;;;21.24;31.72;100676.47;4960764;28;45465;-78
2022/05/31 11:07:27;;;;;;;;;3.50;3.00;;;;;21.28;31.25;100675.13;4958010;28;45485;-77
2022/05/31 11:13:09;;;;;;;;;2.50;1.75;;;;;21.35;31.72;100680.78;4974648;28;45418;-79
2022/05/31 11:15:38;;;;;;;;;3.25;3.25;;;;;21.54;32.37;100676.22;4973563;28;45427;-79
2022/05/31 11:18:34;;;;;;;;;3.00;3.00;;;;;21.63;31.27;100675.25;4974682;28;45429;-78
2022/05/31 11:21:03;;;;;;;;;2.00;2.00;;;;;21.59;30.96;100679.28;4972246;28;45500;-79
2022/05/31 11:23:47;;;;;;;;;2.00;2.00;;;;;21.49;30.84;100680.22;4972979;28;45821;-78
2022/05/31 11:26:25;;;;;;;;;5.75;2.25;;;;;21.44;31.15;100679.88;4972300;28;45594;-75
2022/05/31 11:29:09;;;;;;;;;2.25;2.25;;;;;21.32;31.09;100682.97;4958251;28;45715;-73
2022/05/31 11:31:53;;;;;;;;;2.25;2.25;;;;;21.19;30.49;100684.22;4992078;28;45386;-74
2022/05/31 11:34:32;;;;;;;;;1.00;1.00;;;;;21.07;30.48;100680.06;5029473;28;45479;-74
2022/05/31 11:37:09;;;;;;;;;1.25;1.25;;;;;21.16;31.51;100681.81;5024687;28;45392;-73
2022/05/31 11:40:19;;;;;;;;;2.00;2.00;;;;;21.23;31.03;100688.28;5019829;28;46636;-73
2022/05/31 11:43:23;;;;;;;;;2.75;2.00;;;;;21.24;30.59;100695.44;4937858;28;46007;-80
2022/05/31 11:45:48;;;;;;;;;3.00;3.00;;;;;21.23;30.81;100693.72;4937839;28;45556;-79
2022/05/31 11:48:36;;;;;;;;;2.50;2.50;;;;;21.18;30.50;100695.19;4933893;28;45607;-78
2022/05/31 11:51:45;;;;;;;;;2.25;2.25;;;;;21.15;30.15;100693.66;4934246;28;45448;-76
2022/05/31 11:54:41;;;;;;;;;2.00;2.00;;;;;21.08;30.55;100699.84;4879174;29;46257;-75
2022/05/31 11:57:18;;;;;;;;;2.50;2.50;;;;;21.00;30.83;100698.78;4877975;29;45766;-77
2022/05/31 11:59:51;;;;;;;;;3.00;2.00;;;;;20.91;31.16;100705.09;4879044;29;45428;-76
2022/05/31 12:02:29;;;;;;;;;2.00;2.00;;;;;20.97;31.91;100695.50;4880798;29;45496;-76
2022/05/31 12:05:02;;;;;;;;;1.00;1.00;;;;;21.01;31.72;100686.94;4864911;29;47282;-76
2022/05/31 12:07:47;;;;;;;;;3.25;3.00;;;;;21.06;32.01;100692.72;4880727;29;45607;-76
2022/05/31 12:10:22;;;;;;;;;3.00;3.00;;;;;21.08;31.80;100694.44;4863154;29;46266;-76
2022/05/31 12:12:49;;;;;;;;;4.75;2.00;;;;;21.08;31.96;100695.28;4880820;29;45400;-76